Akademik Korolev — UHQS — position and weather

sailwx.info

Track history (hours):
 
Tides and Currents Weather Stations Pressure Air Temp Water Temp Dewpoint Dewpoint Depression Visibility Wind Speed Wind Dir Waves Ship Positions

Oceanographic research ship Akademik Korolev (Russia)

Detailed information on ship capabilities available from University of Delaware's Ocean Information Center.

Last reported at 2017-Apr-01 16:55 UTC. Time now 2017-Apr-29 11:31 UTC.
Position N 07°57' W 014°43'.
Warning: this ship's position is 27 days out of date.

Length 130 m; draft 9.2 m.

Type: Cargo ship. MMSI: 273386650.

Date/timePositionNaut miles runAvg speedWind from/ knotsBaromVisibWave heightAir tempDewpointWater temp
2017-Apr-01 16:55N 07°57' W 014°43'511.9
2017-Apr-01 16:30N 08°00' W 014°47'11712.0
2017-Apr-01 06:41N 09°17' W 016°17'3311.7
2017-Apr-01 03:52N 09°42' W 016°39'511.0
2017-Apr-01 03:27N 09°45' W 016°42'  
2017-Mar-28 14:04N 26°21' W 014°59'712.4
2017-Mar-28 13:32N 26°26' W 014°55'5012.5
2017-Mar-28 09:33N 27°07' W 014°22'1212.4
2017-Mar-28 08:33N 27°17' W 014°14'1312.7
2017-Mar-28 07:33N 27°27' W 014°05'1312.9
2017-Mar-28 06:33N 27°37' W 013°56'1312.8
2017-Mar-28 05:32N 27°47' W 013°47'1312.8
2017-Mar-28 04:30N 27°57' W 013°38'1412.8
2017-Mar-28 03:24N 28°09' W 013°28'1112.6
2017-Mar-28 02:33N 28°18' W 013°21'1212.4
2017-Mar-28 01:33N 28°28' W 013°14'1312.3
2017-Mar-28 00:29N 28°38' W 013°04'58811.3
2017-Mar-25 20:33N 35°57' W 005°22'3 2.5
2017-Mar-25 19:33N 35°55' W 005°20'0 0.2
2017-Mar-25 18:33N 35°55' W 005°20'0 0.1
2017-Mar-25 17:33N 35°55' W 005°20'0 0.0
2017-Mar-25 16:33N 35°55' W 005°20'0 0.0
2017-Mar-25 15:33N 35°55' W 005°20'0 0.0
2017-Mar-25 14:33N 35°55' W 005°20'0 0.0
2017-Mar-25 13:33N 35°55' W 005°20'0 0.0
2017-Mar-25 12:33N 35°55' W 005°20'0 0.0
2017-Mar-25 11:33N 35°55' W 005°20'0 0.0
2017-Mar-25 10:33N 35°55' W 005°20'0 0.0
2017-Mar-25 09:33N 35°55' W 005°20'0 0.0
2017-Mar-25 08:33N 35°55' W 005°20'0 0.0
2017-Mar-25 07:33N 35°55' W 005°20'0 0.0
2017-Mar-25 06:33N 35°55' W 005°20'0 0.1
2017-Mar-25 05:33N 35°55' W 005°20'0 0.0
2017-Mar-25 04:33N 35°55' W 005°20'0 0.0
2017-Mar-25 03:33N 35°55' W 005°20'0 0.1
2017-Mar-25 02:33N 35°55' W 005°20'0 0.1
2017-Mar-25 01:33N 35°55' W 005°20'0 0.0
2017-Mar-25 00:33N 35°55' W 005°20'0 0.1
2017-Mar-24 23:33N 35°55' W 005°20'4 3.7
2017-Mar-24 22:33N 35°57' W 005°24'1212.2
2017-Mar-24 21:33N 35°54' W 005°39'219 9.1
2017-Mar-23 21:25N 37°39' W 009°39'24 8.5
2017-Mar-23 18:33N 37°31' W 009°10'6 6.0
2017-Mar-23 17:33N 37°31' W 009°03'1211.8
2017-Mar-23 16:32N 37°43' W 009°05'1211.9
2017-Mar-23 15:33N 37°54' W 009°08'1211.6
2017-Mar-23 14:33N 38°05' W 009°11'1010.2
2017-Mar-23 13:33N 38°16' W 009°11'1010.2
2017-Mar-23 12:33N 38°22' W 009°01'8 7.8
2017-Mar-23 11:29N 38°29' W 008°56'0 0.0
2017-Mar-23 10:32N 38°29' W 008°56'0 0.0
2017-Mar-23 09:26N 38°29' W 008°56'0 0.0
2017-Mar-23 08:32N 38°29' W 008°56'0 0.0
2017-Mar-23 07:32N 38°29' W 008°56'0 0.0
2017-Mar-23 06:32N 38°29' W 008°56'0 0.0
2017-Mar-23 05:29N 38°29' W 008°56'0 0.0
2017-Mar-23 04:26N 38°29' W 008°56'0 0.0
2017-Mar-23 03:32N 38°29' W 008°56'0 0.0
2017-Mar-23 02:32N 38°29' W 008°56'0 0.0
2017-Mar-23 01:32N 38°29' W 008°56'0 0.0
2017-Mar-23 00:32N 38°29' W 008°56'0 0.0
2017-Mar-22 23:32N 38°29' W 008°56'0 0.0
2017-Mar-22 22:26N 38°29' W 008°56'0 0.0
2017-Mar-22 21:32N 38°29' W 008°56'0 0.0
2017-Mar-22 20:32N 38°29' W 008°56'0 0.0
2017-Mar-22 19:32N 38°29' W 008°56'0 0.0
2017-Mar-22 18:32N 38°29' W 008°56'0 0.0
2017-Mar-22 17:32N 38°29' W 008°56'  
Track history (hours):
 
Tides and Currents Weather Stations Pressure Air Temp Water Temp Dewpoint Dewpoint Depression Visibility Wind Speed Wind Dir Waves Ship Positions

Oceanographic research ship Akademik Korolev (Russia)

Detailed information on ship capabilities available from University of Delaware's Ocean Information Center.

Last reported at 2017-Apr-01 16:55 UTC. Time now 2017-Apr-29 11:31 UTC.
Position N 07°57' W 014°43'.
Warning: this ship's position is 27 days out of date.

Length 130 m; draft 9.2 m.

Type: Cargo ship. MMSI: 273386650.

Date/timePositionNaut miles runAvg speedWind from/ knotsBaromVisibWave heightAir tempDewpointWater temp
2017-Apr-01 16:55N 07°57' W 014°43'511.9
2017-Apr-01 16:30N 08°00' W 014°47'11712.0
2017-Apr-01 06:41N 09°17' W 016°17'3311.7
2017-Apr-01 03:52N 09°42' W 016°39'511.0
2017-Apr-01 03:27N 09°45' W 016°42'  
2017-Mar-28 14:04N 26°21' W 014°59'712.4
2017-Mar-28 13:32N 26°26' W 014°55'5012.5
2017-Mar-28 09:33N 27°07' W 014°22'1212.4
2017-Mar-28 08:33N 27°17' W 014°14'1312.7
2017-Mar-28 07:33N 27°27' W 014°05'1312.9
2017-Mar-28 06:33N 27°37' W 013°56'1312.8
2017-Mar-28 05:32N 27°47' W 013°47'1312.8
2017-Mar-28 04:30N 27°57' W 013°38'1412.8
2017-Mar-28 03:24N 28°09' W 013°28'1112.6
2017-Mar-28 02:33N 28°18' W 013°21'1212.4
2017-Mar-28 01:33N 28°28' W 013°14'1312.3
2017-Mar-28 00:29N 28°38' W 013°04'58811.3
2017-Mar-25 20:33N 35°57' W 005°22'3 2.5
2017-Mar-25 19:33N 35°55' W 005°20'0 0.2
2017-Mar-25 18:33N 35°55' W 005°20'0 0.1
2017-Mar-25 17:33N 35°55' W 005°20'0 0.0
2017-Mar-25 16:33N 35°55' W 005°20'0 0.0
2017-Mar-25 15:33N 35°55' W 005°20'0 0.0
2017-Mar-25 14:33N 35°55' W 005°20'0 0.0
2017-Mar-25 13:33N 35°55' W 005°20'0 0.0
2017-Mar-25 12:33N 35°55' W 005°20'0 0.0
2017-Mar-25 11:33N 35°55' W 005°20'0 0.0
2017-Mar-25 10:33N 35°55' W 005°20'0 0.0
2017-Mar-25 09:33N 35°55' W 005°20'0 0.0
2017-Mar-25 08:33N 35°55' W 005°20'0 0.0
2017-Mar-25 07:33N 35°55' W 005°20'0 0.0
2017-Mar-25 06:33N 35°55' W 005°20'0 0.1
2017-Mar-25 05:33N 35°55' W 005°20'0 0.0
2017-Mar-25 04:33N 35°55' W 005°20'0 0.0
2017-Mar-25 03:33N 35°55' W 005°20'0 0.1
2017-Mar-25 02:33N 35°55' W 005°20'0 0.1
2017-Mar-25 01:33N 35°55' W 005°20'0 0.0
2017-Mar-25 00:33N 35°55' W 005°20'0 0.1
2017-Mar-24 23:33N 35°55' W 005°20'4 3.7
2017-Mar-24 22:33N 35°57' W 005°24'1212.2
2017-Mar-24 21:33N 35°54' W 005°39'219 9.1
2017-Mar-23 21:25N 37°39' W 009°39'24 8.5
2017-Mar-23 18:33N 37°31' W 009°10'6 6.0
2017-Mar-23 17:33N 37°31' W 009°03'1211.8
2017-Mar-23 16:32N 37°43' W 009°05'1211.9
2017-Mar-23 15:33N 37°54' W 009°08'1211.6
2017-Mar-23 14:33N 38°05' W 009°11'1010.2
2017-Mar-23 13:33N 38°16' W 009°11'1010.2
2017-Mar-23 12:33N 38°22' W 009°01'8 7.8
2017-Mar-23 11:29N 38°29' W 008°56'0 0.0
2017-Mar-23 10:32N 38°29' W 008°56'0 0.0
2017-Mar-23 09:26N 38°29' W 008°56'0 0.0
2017-Mar-23 08:32N 38°29' W 008°56'0 0.0
2017-Mar-23 07:32N 38°29' W 008°56'0 0.0
2017-Mar-23 06:32N 38°29' W 008°56'0 0.0
2017-Mar-23 05:29N 38°29' W 008°56'0 0.0
2017-Mar-23 04:26N 38°29' W 008°56'0 0.0
2017-Mar-23 03:32N 38°29' W 008°56'0 0.0
2017-Mar-23 02:32N 38°29' W 008°56'0 0.0
2017-Mar-23 01:32N 38°29' W 008°56'0 0.0
2017-Mar-23 00:32N 38°29' W 008°56'0 0.0
2017-Mar-22 23:32N 38°29' W 008°56'0 0.0
2017-Mar-22 22:26N 38°29' W 008°56'0 0.0
2017-Mar-22 21:32N 38°29' W 008°56'0 0.0
2017-Mar-22 20:32N 38°29' W 008°56'0 0.0
2017-Mar-22 19:32N 38°29' W 008°56'0 0.0
2017-Mar-22 18:32N 38°29' W 008°56'0 0.0
2017-Mar-22 17:32N 38°29' W 008°56'  

Dump ship's entire track history